Cape Hatteras National Seash, North Carolina
Current Conditions -  °F | °C
As of 6:15 AM on Friday 24 Oct 2014 (Local Time) from KMQI Reporting Station
Clear Clear  
Wind Chill: 14°   Ceiling: Unl
Heat Index: 14°   Visibility: 10mi
Dew Point:   Wind: 8mph
Humidity: 72%   Direction: 320°NW
Pressure: 29.96"   Gusts: NA
Location:  35.8834°N, 75.6616°W
Report Text: KMQI 241015Z AUTO 32007KT 260V330 10SM CLR 14/09 A2996 RMK AO2 T01350085
Loading
Personal Weather Stations






























Interactive Weather Map
Tropical Storm Tracking
New forecast layout! Learn more

10-Day Weather Forecast

Advertisements
Track Severe Weather on mobile